createdAt,value
2023-02-03T00:02:19.932Z,106.07
2023-02-03T00:04:48.304Z,109.10
2023-02-03T00:07:16.655Z,89.95
2023-02-03T00:09:45.001Z,126.05
2023-02-03T00:12:15.375Z,105.88
2023-02-03T00:14:43.654Z,102.88
2023-02-03T00:17:11.830Z,98.28
2023-02-03T00:19:40.220Z,97.85
2023-02-03T00:22:08.326Z,67.68
2023-02-03T00:24:36.578Z,86.97
2023-02-03T00:27:04.673Z,74.40
2023-02-03T00:29:34.279Z,89.72
2023-02-03T00:32:02.798Z,99.85
2023-02-03T00:34:31.978Z,88.38
2023-02-03T00:37:00.774Z,75.20
2023-02-03T00:39:29.190Z,95.28
2023-02-03T00:41:57.482Z,74.13
2023-02-03T00:44:25.720Z,78.85
2023-02-03T00:46:55.143Z,83.20
2023-02-03T00:49:24.346Z,85.28
2023-02-03T00:51:53.015Z,78.35
2023-02-03T00:54:22.072Z,94.70
2023-02-03T00:56:50.495Z,87.22
2023-02-03T00:59:18.560Z,79.25
2023-02-03T01:01:46.859Z,75.75
2023-02-03T01:04:16.387Z,88.60
2023-02-03T01:06:44.768Z,57.10
2023-02-03T01:09:13.561Z,81.05
2023-02-03T01:11:41.831Z,74.82
2023-02-03T01:14:10.400Z,71.20
2023-02-03T01:16:38.646Z,57.58
2023-02-03T01:19:07.310Z,51.35
2023-02-03T01:21:37.209Z,75.72
2023-02-03T01:24:05.412Z,62.42
2023-02-03T01:26:33.565Z,49.28
2023-02-03T01:29:02.081Z,60.15
2023-02-03T01:31:33.497Z,52.10
2023-02-03T01:34:02.346Z,65.90
2023-02-03T01:36:32.206Z,61.65
2023-02-03T01:39:01.965Z,60.72
2023-02-03T01:41:32.555Z,47.47
2023-02-03T01:44:02.264Z,74.20
2023-02-03T01:46:33.545Z,43.65
2023-02-03T01:49:09.230Z,52.88
2023-02-03T01:51:40.746Z,56.75
2023-02-03T01:54:13.849Z,54.95
2023-02-03T01:56:46.377Z,64.80
2023-02-03T01:59:18.911Z,62.25
2023-02-03T02:01:48.033Z,73.25
2023-02-03T02:04:17.083Z,55.13
2023-02-03T02:06:47.999Z,63.42
2023-02-03T02:09:17.813Z,59.65
2023-02-03T02:11:46.028Z,58.67
2023-02-03T02:14:14.387Z,65.60
2023-02-03T02:16:50.273Z,67.07
2023-02-03T02:19:43.029Z,74.75
2023-02-03T02:22:15.391Z,60.15
2023-02-03T02:25:12.306Z,54.10
2023-02-03T02:28:09.217Z,68.55
2023-02-03T02:31:13.303Z,77.05
2023-02-03T02:33:50.387Z,58.40
2023-02-03T02:36:29.348Z,60.67
2023-02-03T02:39:03.484Z,48.47
2023-02-03T02:41:40.578Z,50.92
2023-02-03T02:44:15.513Z,58.17
2023-02-03T02:46:48.571Z,67.22
2023-02-03T02:49:25.255Z,47.28
2023-02-03T02:51:54.875Z,49.30
2023-02-03T02:54:26.363Z,56.42
2023-02-03T02:56:59.234Z,55.97
2023-02-03T02:59:28.299Z,44.58
2023-02-03T03:01:56.687Z,53.60
2023-02-03T03:04:28.657Z,58.00
2023-02-03T03:07:02.868Z,44.20
2023-02-03T03:12:09.165Z,40.90
2023-02-03T03:14:40.880Z,36.30
2023-02-03T03:17:14.172Z,42.55
2023-02-03T03:19:48.379Z,40.45
2023-02-03T03:22:19.261Z,46.85
2023-02-03T03:24:50.004Z,47.05
2023-02-03T03:27:22.760Z,40.08
2023-02-03T03:29:55.699Z,39.13
2023-02-03T03:32:24.339Z,41.88
2023-02-03T03:34:54.270Z,42.75
2023-02-03T03:37:28.864Z,40.78
2023-02-03T03:39:59.049Z,34.25
2023-02-03T03:42:34.075Z,47.53
2023-02-03T03:45:08.376Z,39.08
2023-02-03T03:50:11.990Z,36.22
2023-02-03T03:52:41.941Z,34.03
2023-02-03T03:55:12.369Z,33.97
2023-02-03T03:57:44.811Z,37.13
2023-02-03T04:00:19.127Z,34.42
2023-02-03T04:05:17.637Z,34.53
2023-02-03T04:07:47.782Z,31.00
2023-02-03T04:10:23.528Z,36.50
2023-02-03T04:12:51.613Z,43.30
2023-02-03T04:15:19.984Z,30.20
2023-02-03T04:17:48.080Z,36.78
2023-02-03T04:20:18.540Z,35.40
2023-02-03T04:22:48.513Z,45.38
2023-02-03T04:25:16.714Z,36.80
2023-02-03T04:27:44.909Z,33.08
2023-02-03T04:30:14.692Z,33.28
2023-02-03T04:32:42.905Z,31.98
2023-02-03T04:35:10.981Z,31.65
2023-02-03T04:37:40.571Z,33.30
2023-02-03T04:40:10.391Z,31.27
2023-02-03T04:42:39.092Z,25.85
2023-02-03T04:45:10.083Z,32.85
2023-02-03T04:47:39.252Z,36.63
2023-02-03T04:50:08.144Z,41.35
2023-02-03T04:52:36.165Z,34.30
2023-02-03T04:55:06.337Z,42.00
2023-02-03T04:57:34.583Z,29.45
2023-02-03T05:00:02.909Z,25.90
2023-02-03T05:02:30.963Z,26.88
2023-02-03T05:04:59.302Z,30.45
2023-02-03T05:07:27.425Z,27.10
2023-02-03T05:09:55.496Z,26.35
2023-02-03T05:12:24.951Z,28.05
2023-02-03T05:14:53.094Z,31.30
2023-02-03T05:17:21.169Z,26.35
2023-02-03T05:19:49.425Z,37.53
2023-02-03T05:22:17.713Z,26.30
2023-02-03T05:24:46.477Z,17.25
2023-02-03T05:27:14.539Z,26.00
2023-02-03T05:29:44.155Z,21.42
2023-02-03T05:32:12.287Z,19.13
2023-02-03T05:34:42.305Z,20.08
2023-02-03T05:37:10.560Z,26.33
2023-02-03T05:39:38.990Z,19.23
2023-02-03T05:42:06.164Z,24.08
2023-02-03T05:44:34.531Z,27.25
2023-02-03T05:47:04.062Z,24.33
2023-02-03T05:49:32.343Z,29.27
2023-02-03T05:52:00.552Z,27.60
2023-02-03T05:54:28.816Z,28.65
2023-02-03T05:56:56.915Z,22.98
2023-02-03T05:59:25.077Z,21.27
2023-02-03T06:01:53.409Z,30.33
2023-02-03T06:04:22.869Z,23.67
2023-02-03T06:06:51.146Z,21.17
2023-02-03T06:09:19.231Z,23.50
2023-02-03T06:11:47.490Z,22.83
2023-02-03T06:14:15.584Z,28.08
2023-02-03T06:16:43.929Z,19.73
2023-02-03T06:19:13.569Z,23.10
2023-02-03T06:21:44.098Z,23.75
2023-02-03T06:24:12.619Z,26.17
2023-02-03T06:26:40.765Z,29.92
2023-02-03T06:29:08.826Z,21.60
2023-02-03T06:31:37.401Z,33.38
2023-02-03T06:34:05.508Z,21.60
2023-02-03T06:36:33.540Z,25.77
2023-02-03T06:39:03.073Z,29.63
2023-02-03T06:41:32.796Z,30.23
2023-02-03T06:44:01.005Z,30.48
2023-02-03T06:46:30.460Z,27.50
2023-02-03T06:48:58.667Z,28.23
2023-02-03T06:51:26.932Z,27.35
2023-02-03T06:53:55.029Z,24.55
2023-02-03T06:56:24.521Z,27.38
2023-02-03T06:58:52.808Z,28.35
2023-02-03T07:01:20.963Z,29.05
2023-02-03T07:03:49.188Z,23.00
2023-02-03T07:06:17.461Z,23.70
2023-02-03T07:08:45.827Z,22.90
2023-02-03T07:11:14.208Z,16.90
2023-02-03T07:13:43.662Z,27.02
2023-02-03T07:16:12.038Z,16.92
2023-02-03T07:18:48.197Z,20.08
2023-02-03T07:21:17.845Z,18.85
2023-02-03T07:23:48.492Z,21.33
2023-02-03T07:26:17.388Z,20.17
2023-02-03T07:28:47.012Z,17.92
2023-02-03T07:31:15.439Z,18.98
2023-02-03T07:33:43.618Z,16.35
2023-02-03T07:36:12.411Z,17.80
2023-02-03T07:38:40.522Z,16.77
2023-02-03T07:41:08.859Z,13.50
2023-02-03T07:43:37.662Z,22.92
2023-02-03T07:46:07.584Z,24.65
2023-02-03T07:48:36.674Z,20.17
2023-02-03T07:51:05.139Z,20.20
2023-02-03T07:53:33.539Z,15.25
2023-02-03T07:56:02.624Z,12.43
2023-02-03T07:58:31.729Z,12.15
2023-02-03T08:01:00.435Z,18.08
2023-02-03T08:03:30.107Z,19.88
2023-02-03T08:05:58.201Z,14.27
2023-02-03T08:08:26.532Z,18.58
2023-02-03T08:10:56.492Z,19.02
2023-02-03T08:13:24.841Z,16.92
2023-02-03T08:15:53.191Z,13.15
2023-02-03T08:18:21.453Z,19.50
2023-02-03T08:20:51.211Z,14.50
2023-02-03T08:23:19.380Z,17.55
2023-02-03T08:25:52.151Z,21.92
2023-02-03T08:28:20.658Z,16.30
2023-02-03T08:30:49.071Z,12.20
2023-02-03T08:33:17.565Z,14.88
2023-02-03T08:35:47.585Z,19.10
2023-02-03T08:38:19.664Z,14.50
2023-02-03T08:40:48.155Z,27.70
2023-02-03T08:43:16.311Z,20.48
2023-02-03T08:45:45.109Z,17.45
2023-02-03T08:48:13.812Z,16.05
2023-02-03T08:50:44.578Z,18.65
2023-02-03T08:53:12.837Z,30.65
2023-02-03T08:55:42.323Z,19.15
2023-02-03T08:58:10.648Z,15.13
2023-02-03T09:00:38.860Z,23.23
2023-02-03T09:03:07.106Z,24.60
2023-02-03T09:05:35.647Z,27.85
2023-02-03T09:08:03.962Z,24.10
2023-02-03T09:10:32.271Z,23.63
2023-02-03T09:13:01.841Z,25.25
2023-02-03T09:15:29.984Z,18.15
2023-02-03T09:17:58.137Z,17.35
2023-02-03T09:20:26.886Z,25.27
2023-02-03T09:22:55.595Z,27.77
2023-02-03T09:25:23.672Z,26.67
2023-02-03T09:27:51.981Z,25.50
2023-02-03T09:30:21.471Z,32.40
2023-02-03T09:32:54.233Z,27.95
2023-02-03T09:35:22.463Z,23.63
2023-02-03T09:37:51.062Z,21.52
2023-02-03T09:40:23.997Z,20.42
2023-02-03T09:43:09.607Z,23.15
2023-02-03T09:45:39.605Z,28.10
2023-02-03T09:48:13.703Z,32.45
2023-02-03T09:53:23.677Z,27.05
2023-02-03T09:55:52.044Z,20.33
2023-02-03T09:58:23.139Z,23.92
2023-02-03T10:00:55.584Z,22.65
2023-02-03T10:03:32.446Z,20.67
2023-02-03T10:06:11.596Z,22.35
2023-02-03T10:09:17.657Z,21.42
2023-02-03T10:12:14.771Z,22.00
2023-02-03T10:14:58.316Z,23.60
2023-02-03T10:17:32.414Z,25.50
2023-02-03T10:20:06.168Z,17.42
2023-02-03T10:22:39.127Z,32.47
2023-02-03T10:25:17.944Z,29.33
2023-02-03T10:27:46.803Z,22.42
2023-02-03T10:30:21.583Z,24.25
2023-02-03T10:32:55.748Z,25.20
2023-02-03T10:37:59.985Z,24.85
2023-02-03T10:40:29.588Z,23.83
2023-02-03T10:43:15.417Z,24.75
2023-02-03T10:45:44.026Z,28.35
2023-02-03T10:48:18.659Z,25.95
2023-02-03T10:50:51.395Z,28.00
2023-02-03T10:53:25.760Z,19.20
2023-02-03T10:56:03.076Z,18.08
2023-02-03T10:58:34.232Z,22.73
2023-02-03T11:01:11.925Z,26.30
2023-02-03T11:03:45.792Z,25.88
2023-02-03T11:06:16.600Z,24.75
2023-02-03T11:08:47.411Z,19.88
2023-02-03T11:11:22.385Z,31.40
2023-02-03T11:13:57.240Z,26.38
2023-02-03T11:16:28.096Z,20.33
2023-02-03T11:19:00.740Z,23.95
2023-02-03T11:21:32.012Z,23.15
2023-02-03T11:24:06.084Z,17.10
2023-02-03T11:26:38.136Z,23.98
2023-02-03T11:29:08.423Z,23.27
2023-02-03T11:31:38.407Z,25.92
2023-02-03T11:34:16.869Z,26.02
2023-02-03T11:36:45.054Z,22.02
2023-02-03T11:39:25.063Z,26.60
2023-02-03T11:41:53.840Z,27.83
2023-02-03T11:44:26.188Z,27.77
2023-02-03T11:46:58.598Z,23.67
2023-02-03T11:50:14.836Z,25.80
2023-02-03T11:52:54.781Z,22.10
2023-02-03T11:55:33.029Z,30.35
2023-02-03T11:58:39.157Z,30.27
2023-02-03T12:01:16.865Z,24.90
2023-02-03T12:04:19.323Z,25.98
2023-02-03T12:07:07.863Z,27.25
2023-02-03T12:09:46.387Z,21.92
2023-02-03T12:12:34.869Z,25.70
2023-02-03T12:15:16.570Z,24.58
2023-02-03T12:18:11.813Z,21.80
2023-02-03T12:20:54.953Z,19.98
2023-02-03T12:23:35.262Z,18.55
2023-02-03T12:26:15.946Z,24.10
2023-02-03T12:28:52.515Z,25.60
2023-02-03T12:31:29.361Z,23.52
2023-02-03T12:34:05.799Z,22.75
2023-02-03T12:36:39.427Z,21.70
2023-02-03T12:39:15.658Z,24.02
2023-02-03T12:41:51.217Z,23.50
2023-02-03T12:44:23.404Z,25.02
2023-02-03T12:46:57.254Z,22.33
2023-02-03T12:49:36.387Z,26.52
2023-02-03T12:52:11.694Z,20.65
2023-02-03T12:54:45.789Z,19.30
2023-02-03T12:57:23.316Z,23.63
2023-02-03T13:00:19.410Z,20.55
2023-02-03T13:03:00.399Z,25.65
2023-02-03T13:05:35.171Z,21.13
2023-02-03T13:08:12.460Z,23.38
2023-02-03T13:10:48.780Z,25.60
2023-02-03T13:13:27.531Z,26.05
2023-02-03T13:15:57.827Z,26.98
2023-02-03T13:18:30.618Z,20.63
2023-02-03T13:20:59.073Z,22.85
2023-02-03T13:23:28.090Z,20.90
2023-02-03T13:26:14.192Z,27.10
2023-02-03T13:29:06.092Z,22.33
2023-02-03T13:31:45.155Z,28.27
2023-02-03T13:34:43.397Z,24.95
2023-02-03T13:37:47.205Z,28.30
2023-02-03T13:40:23.857Z,27.33
2023-02-03T13:42:58.657Z,28.30
2023-02-03T13:45:32.143Z,29.10
2023-02-03T13:48:09.665Z,26.10
2023-02-03T13:50:38.670Z,25.48
2023-02-03T13:53:09.072Z,25.95
2023-02-03T13:55:39.881Z,34.42
2023-02-03T13:58:21.162Z,32.17
2023-02-03T14:01:33.430Z,31.92
2023-02-03T14:04:02.511Z,30.15
2023-02-03T14:06:59.779Z,33.30
2023-02-03T14:09:41.933Z,26.90
2023-02-03T14:12:33.329Z,30.08
2023-02-03T14:15:17.934Z,31.63
2023-02-03T14:20:55.925Z,31.67
2023-02-03T14:23:30.654Z,26.90
2023-02-03T14:26:00.686Z,23.15
2023-02-03T14:28:40.060Z,24.52
2023-02-03T14:31:17.920Z,28.60
2023-02-03T14:34:13.880Z,23.98
2023-02-03T14:36:55.102Z,25.20
2023-02-03T14:40:17.333Z,20.08
2023-02-03T14:43:18.986Z,26.77
2023-02-03T14:46:17.250Z,32.17
2023-02-03T14:49:08.942Z,20.70
2023-02-03T14:51:57.697Z,25.73
2023-02-03T14:54:42.043Z,19.27
2023-02-03T14:57:23.493Z,27.80
2023-02-03T14:59:57.446Z,25.80
2023-02-03T15:02:27.907Z,28.02
2023-02-03T15:05:37.033Z,31.08
2023-02-03T15:08:26.954Z,30.17
2023-02-03T15:10:56.494Z,28.60
2023-02-03T15:13:28.692Z,26.52
2023-02-03T15:15:58.539Z,30.85
2023-02-03T15:18:31.589Z,21.38
2023-02-03T15:21:00.233Z,32.22
2023-02-03T15:23:31.815Z,23.35
2023-02-03T15:26:03.331Z,28.73
2023-02-03T15:28:31.839Z,22.70
2023-02-03T15:31:04.751Z,24.05
2023-02-03T15:33:35.133Z,28.30
2023-02-03T15:36:08.449Z,28.60
2023-02-03T15:38:45.952Z,24.88
2023-02-03T15:41:20.811Z,25.67
2023-02-03T15:43:52.007Z,29.25
2023-02-03T15:46:29.432Z,30.00
2023-02-03T15:49:03.111Z,26.65
2023-02-03T15:51:36.624Z,28.45
2023-02-03T15:54:14.532Z,31.90
2023-02-03T15:56:45.940Z,31.40
2023-02-03T15:59:22.553Z,27.65
2023-02-03T16:01:51.151Z,24.02
2023-02-03T16:04:20.585Z,28.52
2023-02-03T16:06:51.319Z,31.63
2023-02-03T16:09:30.984Z,34.42
2023-02-03T16:12:15.686Z,34.67
2023-02-03T16:14:45.201Z,32.05
2023-02-03T16:17:31.420Z,25.40
2023-02-03T16:20:24.104Z,31.40
2023-02-03T16:23:18.698Z,39.53
2023-02-03T16:26:03.839Z,31.70
2023-02-03T16:28:50.018Z,34.92
2023-02-03T16:31:37.679Z,28.92
2023-02-03T16:34:32.411Z,33.88
2023-02-03T16:37:18.407Z,34.85
2023-02-03T16:40:04.151Z,30.02
2023-02-03T16:42:58.168Z,33.50
2023-02-03T16:45:44.154Z,37.43
2023-02-03T16:48:30.926Z,33.05
2023-02-03T16:51:04.691Z,32.17
2023-02-03T16:53:34.110Z,31.55
2023-02-03T16:56:05.279Z,37.15
2023-02-03T16:58:34.871Z,29.15
2023-02-03T17:01:05.506Z,31.50
2023-02-03T17:03:36.475Z,33.25
2023-02-03T17:06:08.068Z,33.17
2023-02-03T17:08:37.409Z,33.63
2023-02-03T17:11:07.785Z,40.45
2023-02-03T17:13:38.043Z,37.92
2023-02-03T17:16:11.965Z,28.05
2023-02-03T17:18:41.149Z,37.83
2023-02-03T17:21:11.345Z,34.45
2023-02-03T17:23:40.040Z,46.72
2023-02-03T17:26:08.393Z,36.25
2023-02-03T17:28:39.935Z,34.17
2023-02-03T17:31:08.757Z,36.30
2023-02-03T17:33:36.958Z,30.70
2023-02-03T17:36:07.892Z,41.75
2023-02-03T17:55:13.435Z,51.45
2023-02-03T17:57:41.776Z,42.25
2023-02-03T18:00:13.158Z,39.63
2023-02-03T18:02:42.530Z,40.08
2023-02-03T18:05:11.245Z,36.65
2023-02-03T18:07:39.484Z,33.17
2023-02-03T18:10:09.306Z,42.05
2023-02-03T18:12:37.652Z,45.42
2023-02-03T18:15:06.368Z,43.55
2023-02-03T18:17:35.852Z,44.88
2023-02-03T18:20:04.670Z,35.92
2023-02-03T18:22:34.475Z,36.13
2023-02-03T18:25:02.644Z,46.78
2023-02-03T18:27:30.728Z,33.25
2023-02-03T18:29:58.858Z,45.50
2023-02-03T18:32:27.072Z,33.42
2023-02-03T18:34:56.845Z,40.75
2023-02-03T18:37:24.945Z,40.83
2023-02-03T18:39:54.091Z,38.78
2023-02-03T18:42:22.549Z,35.67
2023-02-03T18:44:50.822Z,33.75
2023-02-03T18:47:19.084Z,37.75
2023-02-03T18:49:47.906Z,38.63
2023-02-03T18:52:17.674Z,43.42
2023-02-03T18:54:45.798Z,38.40
2023-02-03T18:57:16.025Z,43.65
2023-02-03T18:59:44.688Z,46.15
2023-02-03T19:02:13.587Z,39.17
2023-02-03T19:04:41.702Z,39.30
2023-02-03T19:07:11.626Z,40.53
2023-02-03T19:09:41.425Z,42.47
2023-02-03T19:12:09.901Z,32.10
2023-02-03T19:14:38.091Z,37.88
2023-02-03T19:17:06.609Z,38.08
2023-02-03T19:19:34.956Z,38.80
2023-02-03T19:22:03.203Z,37.10
2023-02-03T19:24:31.349Z,41.65
2023-02-03T19:27:00.944Z,36.97
2023-02-03T19:29:29.035Z,40.80
2023-02-03T19:31:57.500Z,39.97
2023-02-03T19:34:27.555Z,44.08
2023-02-03T19:36:58.229Z,48.25
2023-02-03T19:39:26.426Z,44.60
2023-02-03T19:41:54.854Z,39.65
2023-02-03T19:44:24.403Z,44.67
2023-02-03T19:46:52.801Z,39.88
2023-02-03T19:49:21.179Z,41.80
2023-02-03T19:51:49.476Z,45.28
2023-02-03T19:54:18.229Z,42.38
2023-02-03T19:56:46.692Z,44.03
2023-02-03T19:59:14.894Z,44.85
2023-02-03T20:01:44.421Z,47.15
2023-02-03T20:04:12.624Z,41.08
2023-02-03T20:06:40.997Z,42.47
2023-02-03T20:09:09.241Z,43.50
2023-02-03T20:11:37.641Z,43.17
2023-02-03T20:14:06.087Z,45.25
2023-02-03T20:16:34.582Z,37.33
2023-02-03T20:19:04.480Z,47.13
2023-02-03T20:21:32.609Z,45.53
2023-02-03T20:24:01.032Z,42.92
2023-02-03T20:26:29.228Z,49.17
2023-02-03T20:28:57.472Z,38.47
2023-02-03T20:31:25.864Z,49.97
2023-02-03T20:33:54.542Z,45.65
2023-02-03T20:36:25.513Z,45.38
2023-02-03T20:38:53.813Z,45.78
2023-02-03T20:41:22.077Z,42.30
2023-02-03T20:43:50.726Z,44.28
2023-02-03T20:46:20.357Z,48.90
2023-02-03T20:48:48.636Z,51.05
2023-02-03T20:51:20.969Z,39.33
2023-02-03T20:53:51.629Z,43.38
2023-02-03T20:56:21.835Z,51.80
2023-02-03T20:58:50.232Z,47.97
2023-02-03T21:01:21.010Z,55.15
2023-02-03T21:04:07.213Z,46.42
2023-02-03T21:06:36.043Z,44.47
2023-02-03T21:09:14.663Z,52.55
2023-02-03T21:11:44.015Z,49.70
2023-02-03T21:14:20.887Z,51.95
2023-02-03T21:16:49.595Z,48.83
2023-02-03T21:19:27.848Z,52.35
2023-02-03T21:21:56.309Z,44.83
2023-02-03T21:24:29.705Z,42.53
2023-02-03T21:26:58.043Z,45.43
2023-02-03T21:29:27.997Z,45.80
2023-02-03T21:31:56.811Z,41.75
2023-02-03T21:34:29.813Z,43.42
2023-02-03T21:36:58.579Z,41.58
2023-02-03T21:39:34.121Z,42.88
2023-02-03T21:42:17.965Z,41.00
2023-02-03T21:44:46.235Z,40.38
2023-02-03T21:47:18.532Z,48.38
2023-02-03T21:49:46.683Z,39.25
2023-02-03T21:52:15.548Z,54.92
2023-02-03T21:54:45.075Z,44.85
2023-02-03T21:57:15.641Z,43.58
2023-02-03T21:59:46.823Z,41.38
2023-02-03T22:02:44.316Z,39.78
2023-02-03T22:05:16.424Z,46.75
2023-02-03T22:07:44.761Z,46.88
2023-02-03T22:10:14.678Z,43.70
2023-02-03T22:12:43.079Z,43.88
2023-02-03T22:15:12.274Z,38.78
2023-02-03T22:17:40.740Z,40.08
2023-02-03T22:20:09.339Z,40.67
2023-02-03T22:22:37.715Z,30.42
2023-02-03T22:25:06.378Z,23.73
2023-02-03T22:27:36.228Z,33.38
2023-02-03T22:30:05.316Z,28.55
2023-02-03T22:32:33.424Z,31.50
2023-02-03T22:35:01.617Z,25.88
2023-02-03T22:37:32.449Z,25.40
2023-02-03T22:40:00.610Z,25.63
2023-02-03T22:42:29.881Z,31.10
2023-02-03T22:44:59.343Z,32.75
2023-02-03T22:47:27.639Z,29.67
2023-02-03T22:49:56.177Z,25.88
2023-02-03T22:52:24.309Z,25.20
2023-02-03T22:54:52.697Z,22.95
2023-02-03T22:57:20.829Z,19.92
2023-02-03T22:59:49.212Z,15.32
2023-02-03T23:02:18.749Z,15.27
2023-02-03T23:04:47.126Z,22.65
2023-02-03T23:07:15.298Z,22.13
2023-02-03T23:09:43.663Z,17.35
2023-02-03T23:12:11.826Z,13.93
2023-02-03T23:14:40.104Z,16.42
2023-02-03T23:17:08.220Z,20.70
2023-02-03T23:19:38.026Z,17.50
2023-02-03T23:22:06.193Z,14.55
2023-02-03T23:24:34.455Z,11.98
2023-02-03T23:27:02.706Z,13.75
2023-02-03T23:29:33.096Z,15.55
2023-02-03T23:32:02.247Z,17.23
2023-02-03T23:34:47.935Z,17.30
2023-02-03T23:37:17.572Z,15.65
2023-02-03T23:39:45.987Z,13.00
2023-02-03T23:42:14.096Z,12.73
2023-02-03T23:44:42.375Z,12.93
2023-02-03T23:47:10.517Z,6.70
2023-02-03T23:49:38.828Z,7.18
2023-02-03T23:52:06.976Z,7.70
2023-02-03T23:54:36.449Z,12.77
2023-02-03T23:57:05.604Z,8.18
2023-02-03T23:59:33.694Z,9.60
